Time;durP1;ratioP1;P1;durP2;ratioP2;P2;SDS_P1;SDS_P2;PMS_P1;PMS_P2;Temp;Humidity;BMP_temperature;BMP_pressure;BME280_temperature;BME280_humidity;BME280_pressure;Samples;Min_cycle;Max_cycle;Signal;HPM_P1;HPM_P2
2021/10/10 00:00:16;;;;;;;;;;;;;;;2.83;52.98;101784.44;4903617;29;19915;-80
2021/10/10 00:02:42;;;;;;;;;;;;;;;2.84;52.85;101778.50;4893452;29;19952;-79
2021/10/10 00:05:08;;;;;;;;;;;;;;;2.87;53.23;101781.22;4901002;29;19922;-79
2021/10/10 00:07:34;;;;;;;;;;;;;;;2.93;53.00;101778.09;4902705;29;19927;-80
2021/10/10 00:10:01;;;;;;;;;;;;;;;2.93;52.85;101775.53;4903227;29;19927;-80
2021/10/10 00:12:31;;;;;;;;;;;;;;;2.96;53.28;101784.31;4903601;29;19916;-79
2021/10/10 00:14:57;;;;;;;;;;;;;;;2.95;52.86;101779.06;4916401;29;19931;-78
2021/10/10 00:17:23;;;;;;;;;;;;;;;2.98;52.93;101779.25;4887620;29;19924;-79
2021/10/10 00:19:48;;;;;;;;;;;;;;;2.97;53.14;101780.03;4912884;29;20045;-77
2021/10/10 00:22:14;;;;;;;;;;;;;;;2.96;53.11;101779.16;4895528;29;19953;-77
2021/10/10 00:24:39;;;;;;;;;;;;;;;2.96;53.10;101780.84;4903366;29;20062;-78
2021/10/10 00:27:08;;;;;;;;;;;;;;;2.90;52.88;101778.84;4885852;29;19967;-79
2021/10/10 00:29:35;;;;;;;;;;;;;;;2.87;52.94;101781.22;4888404;29;19927;-77
2021/10/10 00:32:01;;;;;;;;;;;;;;;2.85;53.32;101785.41;4901633;29;19928;-78
2021/10/10 00:34:27;;;;;;;;;;;;;;;2.79;52.95;101783.41;4879130;29;20052;-77
2021/10/10 00:36:54;;;;;;;;;;;;;;;2.73;52.80;101784.75;4877436;29;19935;-79
2021/10/10 00:39:19;;;;;;;;;;;;;;;2.66;53.21;101781.84;4899561;29;19923;-78
2021/10/10 00:41:45;;;;;;;;;;;;;;;2.64;53.58;101780.84;4895034;29;19932;-77
2021/10/10 00:44:11;;;;;;;;;;;;;;;2.65;53.45;101784.34;4878998;29;19963;-77
2021/10/10 00:46:36;;;;;;;;;;;;;;;2.67;53.56;101781.03;4897895;29;20016;-79
2021/10/10 00:49:03;;;;;;;;;;;;;;;2.69;53.57;101782.00;4895757;29;20620;-77
2021/10/10 00:51:35;;;;;;;;;;;;;;;2.64;53.70;101780.84;4899298;29;19923;-79
2021/10/10 00:54:03;;;;;;;;;;;;;;;2.62;53.71;101779.88;4889451;29;20003;-79
2021/10/10 00:56:30;;;;;;;;;;;;;;;2.63;54.28;101773.94;4900735;29;19924;-80
2021/10/10 00:58:57;;;;;;;;;;;;;;;2.66;54.39;101774.13;4884947;29;19939;-77
2021/10/10 01:01:23;;;;;;;;;;;;;;;2.65;54.10;101774.91;4884156;29;19927;-80
2021/10/10 01:03:49;;;;;;;;;;;;;;;2.61;53.53;101770.41;4888883;29;20403;-79
2021/10/10 01:06:15;;;;;;;;;;;;;;;2.63;54.01;101773.94;4896095;29;19927;-82
2021/10/10 01:08:41;;;;;;;;;;;;;;;2.66;54.02;101770.66;4881379;29;19986;-79
2021/10/10 01:11:07;;;;;;;;;;;;;;;2.66;53.67;101770.66;4900496;29;19939;-79
2021/10/10 01:13:32;;;;;;;;;;;;;;;2.66;53.75;101779.25;4901758;29;19923;-79
2021/10/10 01:15:59;;;;;;;;;;;;;;;2.60;53.73;101778.03;4903457;29;19923;-80
2021/10/10 01:18:25;;;;;;;;;;;;;;;2.55;53.93;101783.81;4887495;29;19933;-78
2021/10/10 01:20:51;;;;;;;;;;;;;;;2.56;54.08;101784.69;4902323;29;20038;-77
2021/10/10 01:23:17;;;;;;;;;;;;;;;2.56;54.02;101784.69;4903880;29;19927;-78
2021/10/10 01:25:43;;;;;;;;;;;;;;;2.54;54.01;101779.47;4903817;29;19986;-78
2021/10/10 01:28:08;;;;;;;;;;;;;;;2.53;54.01;101784.53;4887895;29;19920;-77
2021/10/10 01:30:34;;;;;;;;;;;;;;;2.53;54.57;101779.41;4903199;29;20007;-76
2021/10/10 01:33:00;;;;;;;;;;;;;;;2.53;54.58;101780.25;4886153;29;20019;-79
2021/10/10 01:35:26;;;;;;;;;;;;;;;2.58;54.61;101777.06;4887528;29;19923;-78
2021/10/10 01:37:53;;;;;;;;;;;;;;;2.60;54.88;101776.34;4887777;29;19929;-78
2021/10/10 01:40:18;;;;;;;;;;;;;;;2.65;54.61;101777.50;4904923;29;20188;-78
2021/10/10 01:42:44;;;;;;;;;;;;;;;2.68;54.58;101769.94;4877861;29;19961;-78
2021/10/10 01:45:13;;;;;;;;;;;;;;;2.74;54.80;101777.09;4902796;29;19924;-76
2021/10/10 01:47:39;;;;;;;;;;;;;;;2.77;54.89;101778.94;4902035;29;20479;-77
2021/10/10 01:50:04;;;;;;;;;;;;;;;2.81;55.17;101779.22;4901452;29;19931;-78
2021/10/10 01:52:30;;;;;;;;;;;;;;;2.58;55.14;101731.66;4888422;29;19927;-78
2021/10/10 01:54:56;;;;;;;;;;;;;;;2.92;54.90;101777.22;4906185;29;19934;-77
2021/10/10 01:57:22;;;;;;;;;;;;;;;2.93;54.85;101780.66;4864087;29;19923;-77
2021/10/10 01:59:47;;;;;;;;;;;;;;;2.92;55.10;101774.66;4892928;29;19930;-77
2021/10/10 02:02:13;;;;;;;;;;;;;;;2.92;54.81;101779.81;4921135;29;19950;-77
2021/10/10 02:04:38;;;;;;;;;;;;;;;2.88;54.95;101780.44;4904491;29;19912;-77
2021/10/10 02:07:04;;;;;;;;;;;;;;;2.89;54.92;101782.19;4876751;29;19956;-77
2021/10/10 02:09:30;;;;;;;;;;;;;;;2.90;55.21;101773.69;4856530;29;19935;-77
2021/10/10 02:11:56;;;;;;;;;;;;;;;2.92;55.35;101777.22;4883737;29;19995;-77
2021/10/10 02:14:21;;;;;;;;;;;;;;;2.91;55.39;101780.59;4883945;29;20807;-77
2021/10/10 02:16:47;;;;;;;;;;;;;;;2.92;55.46;101784.94;4882434;29;19965;-78
2021/10/10 02:19:12;;;;;;;;;;;;;;;2.91;55.20;101783.19;4859836;29;19924;-77
2021/10/10 02:21:38;;;;;;;;;;;;;;;2.95;55.53;101782.53;4876705;29;19966;-78
2021/10/10 02:24:03;;;;;;;;;;;;;;;2.96;55.70;101784.31;4884990;29;19928;-76
2021/10/10 02:26:29;;;;;;;;;;;;;;;2.98;55.47;101774.97;4883605;29;19923;-77
2021/10/10 02:28:54;;;;;;;;;;;;;;;2.99;55.38;101776.75;4863999;29;20059;-77
2021/10/10 02:31:20;;;;;;;;;;;;;;;3.01;55.57;101777.72;4897251;29;21009;-76
2021/10/10 02:33:48;;;;;;;;;;;;;;;3.00;55.24;101781.06;4881414;29;19983;-78
2021/10/10 02:36:14;;;;;;;;;;;;;;;3.04;55.56;101776.09;4866343;29;19999;-78
2021/10/10 02:38:39;;;;;;;;;;;;;;;3.04;55.51;101778.69;4897702;29;20018;-77
2021/10/10 02:41:05;;;;;;;;;;;;;;;3.05;55.69;101778.78;4865628;29;19934;-77
2021/10/10 02:43:30;;;;;;;;;;;;;;;3.08;55.45;101783.19;4880250;29;19928;-77
2021/10/10 02:45:56;;;;;;;;;;;;;;;3.11;55.49;101778.22;4878352;29;20018;-78
2021/10/10 02:48:21;;;;;;;;;;;;;;;3.12;55.36;101777.41;4862403;29;19987;-77
2021/10/10 02:50:47;;;;;;;;;;;;;;;3.09;55.73;101777.25;4847800;29;19923;-78
2021/10/10 02:53:13;;;;;;;;;;;;;;;3.05;55.43;101777.88;4880321;29;19923;-78
2021/10/10 02:55:38;;;;;;;;;;;;;;;3.01;55.45;101776.84;4878958;29;19923;-79
2021/10/10 02:58:06;;;;;;;;;;;;;;;3.03;55.47;101774.34;4867518;29;19960;-77
2021/10/10 03:00:32;;;;;;;;;;;;;;;2.98;55.56;101774.97;4880706;29;19927;-78
2021/10/10 03:02:59;;;;;;;;;;;;;;;2.95;55.61;101774.81;4879211;29;19943;-79
2021/10/10 03:05:26;;;;;;;;;;;;;;;2.91;55.38;101772.88;4863127;29;19932;-80
2021/10/10 03:07:51;;;;;;;;;;;;;;;2.91;55.43;101772.00;4863833;29;20439;-77
2021/10/10 03:10:17;;;;;;;;;;;;;;;2.89;55.44;101764.19;4855659;29;19970;-78
2021/10/10 03:12:42;;;;;;;;;;;;;;;2.89;55.57;101771.91;4893832;29;19982;-76
2021/10/10 03:15:08;;;;;;;;;;;;;;;2.85;55.65;101769.97;4895405;29;19991;-77
2021/10/10 03:17:34;;;;;;;;;;;;;;;2.82;55.46;101770.72;4863349;29;21113;-77
2021/10/10 03:19:59;;;;;;;;;;;;;;;2.85;55.72;101764.84;4879969;29;20394;-78
2021/10/10 03:22:25;;;;;;;;;;;;;;;2.85;55.43;101770.88;4862340;29;19934;-77
2021/10/10 03:24:51;;;;;;;;;;;;;;;2.84;55.53;101774.25;4862613;29;19927;-76
2021/10/10 03:27:16;;;;;;;;;;;;;;;2.83;55.42;101769.00;4895337;29;19952;-77
2021/10/10 03:29:41;;;;;;;;;;;;;;;2.80;55.94;101768.84;4895588;29;20055;-78
2021/10/10 03:32:07;;;;;;;;;;;;;;;2.83;56.00;101769.91;4874091;29;19970;-79
2021/10/10 03:34:33;;;;;;;;;;;;;;;2.79;55.88;101764.50;4895443;29;19930;-78
2021/10/10 03:36:59;;;;;;;;;;;;;;;2.81;56.02;101763.78;4878401;29;19923;-78
2021/10/10 03:39:24;;;;;;;;;;;;;;;2.80;55.91;101771.41;4877703;29;20291;-78
2021/10/10 03:41:50;;;;;;;;;;;;;;;2.84;55.53;101758.81;4882849;29;19923;-78
2021/10/10 03:44:15;;;;;;;;;;;;;;;2.84;55.76;101758.81;4859590;29;20264;-77
2021/10/10 03:46:41;;;;;;;;;;;;;;;2.86;55.81;101757.22;4877484;29;19944;-78
2021/10/10 03:49:06;;;;;;;;;;;;;;;2.89;55.92;101756.50;4890723;29;19923;-78
2021/10/10 03:51:32;;;;;;;;;;;;;;;2.94;55.44;101759.28;4910682;29;19966;-78
2021/10/10 03:56:42;;;;;;;;;;;;;;;3.03;55.68;101761.47;4917384;29;19946;-77
2021/10/10 03:59:07;;;;;;;;;;;;;;;3.09;55.66;101751.50;4881945;29;20362;-78
2021/10/10 04:01:33;;;;;;;;;;;;;;;3.15;55.62;101751.84;4856321;29;19928;-77
2021/10/10 04:04:02;;;;;;;;;;;;;;;3.23;55.77;101760.84;4878203;29;19934;-80
2021/10/10 04:06:31;;;;;;;;;;;;;;;3.31;55.39;101751.84;4891565;29;19923;-77
2021/10/10 04:08:59;;;;;;;;;;;;;;;3.38;55.14;101752.16;4878577;29;19975;-78
2021/10/10 04:11:25;;;;;;;;;;;;;;;3.49;55.65;101745.88;4895440;29;19931;-79
2021/10/10 04:13:53;;;;;;;;;;;;;;;3.64;55.41;101750.03;4879954;29;19927;-80
2021/10/10 04:16:21;;;;;;;;;;;;;;;3.71;55.10;101729.84;4877666;29;19948;-78
2021/10/10 04:18:46;;;;;;;;;;;;;;;4.11;55.49;101748.06;4902693;29;20307;-79
2021/10/10 04:21:12;;;;;;;;;;;;;;;4.45;54.33;101739.34;4856579;29;19927;-78
2021/10/10 04:23:38;;;;;;;;;;;;;;;4.79;54.44;101741.81;4879036;29;19923;-77
2021/10/10 04:26:03;;;;;;;;;;;;;;;5.08;54.28;101746.50;4865196;29;19923;-77
2021/10/10 04:28:34;;;;;;;;;;;;;;;5.38;54.12;101741.84;4914132;29;19951;-78
2021/10/10 04:31:05;;;;;;;;;;;;;;;5.81;53.42;101742.75;4881157;29;20418;-78
2021/10/10 04:33:46;;;;;;;;;;;;;;;6.37;53.03;101741.56;4876864;29;20039;-77
2021/10/10 04:36:12;;;;;;;;;;;;;;;7.03;52.62;101735.44;4878174;29;20051;-76
2021/10/10 04:38:47;;;;;;;;;;;;;;;7.84;51.32;101737.38;4894626;29;19999;-79
2021/10/10 04:41:19;;;;;;;;;;;;;;;8.78;50.84;101733.41;4880937;29;20009;-77
2021/10/10 04:43:47;;;;;;;;;;;;;;;9.75;49.61;101731.69;4854439;29;19923;-77
2021/10/10 04:46:17;;;;;;;;;;;;;;;10.59;48.11;101724.16;4861145;29;19993;-77
2021/10/10 04:48:42;;;;;;;;;;;;;;;11.30;47.40;101715.16;4861669;29;21112;-77
2021/10/10 04:51:08;;;;;;;;;;;;;;;11.98;46.38;101715.44;4873786;29;19923;-76
2021/10/10 04:53:40;;;;;;;;;;;;;;;12.74;45.15;101713.03;4865727;29;20291;-77
2021/10/10 04:56:09;;;;;;;;;;;;;;;13.39;44.30;101719.88;4865540;29;19987;-77
2021/10/10 04:58:34;;;;;;;;;;;;;;;13.89;43.41;101714.25;4863105;29;20343;-78
2021/10/10 05:01:02;;;;;;;;;;;;;;;14.30;42.73;101716.28;4880444;29;19923;-78
2021/10/10 05:03:38;;;;;;;;;;;;;;;14.60;42.28;101714.69;4843018;29;19924;-79
2021/10/10 05:06:21;;;;;;;;;;;;;;;14.82;42.04;101720.06;4863510;29;19927;-77
2021/10/10 05:08:47;;;;;;;;;;;;;;;15.05;41.56;101714.91;4898718;29;19947;-78
2021/10/10 05:11:12;;;;;;;;;;;;;;;15.41;41.52;101709.72;4875676;29;20014;-79
2021/10/10 05:13:38;;;;;;;;;;;;;;;15.68;41.16;101719.38;4894341;29;20265;-78
2021/10/10 05:16:04;;;;;;;;;;;;;;;15.92;40.27;101713.28;4848750;29;19924;-78
2021/10/10 05:18:29;;;;;;;;;;;;;;;16.23;40.29;101715.84;4878057;29;20425;-78
2021/10/10 05:20:55;;;;;;;;;;;;;;;16.79;39.81;101713.06;4894325;29;20281;-77
2021/10/10 05:23:23;;;;;;;;;;;;;;;17.31;38.55;101714.56;4893078;29;19927;-76
2021/10/10 05:25:49;;;;;;;;;;;;;;;17.67;37.89;101710.78;4893955;29;19930;-79
2021/10/10 05:28:14;;;;;;;;;;;;;;;17.58;37.84;101707.38;4861736;29;20300;-79
2021/10/10 05:30:47;;;;;;;;;;;;;;;17.34;38.04;101710.19;4873753;29;19979;-79
2021/10/10 05:33:20;;;;;;;;;;;;;;;17.20;38.12;101719.03;4895033;29;20399;-78
2021/10/10 05:35:46;;;;;;;;;;;;;;;17.41;38.27;101710.13;4871039;29;20455;-79
2021/10/10 05:38:34;;;;;;;;;;;;;;;17.87;37.58;101708.00;4883495;29;19934;-79
2021/10/10 05:41:14;;;;;;;;;;;;;;;18.31;37.14;101717.25;4862934;29;20296;-79
2021/10/10 05:44:07;;;;;;;;;;;;;;;19.02;36.20;101712.91;4883114;29;19936;-78
2021/10/10 05:46:35;;;;;;;;;;;;;;;19.49;35.21;101704.31;4882487;29;19927;-79
2021/10/10 05:49:04;;;;;;;;;;;;;;;20.19;34.59;101708.44;4879260;29;19938;-77
2021/10/10 05:51:29;;;;;;;;;;;;;;;20.75;34.03;101710.81;4897231;29;20384;-77
2021/10/10 05:53:55;;;;;;;;;;;;;;;21.37;33.19;101713.00;4877941;29;20018;-79
2021/10/10 05:56:21;;;;;;;;;;;;;;;22.10;32.30;101711.19;4877958;29;19971;-79
2021/10/10 05:58:55;;;;;;;;;;;;;;;22.90;31.67;101706.34;4857520;29;19975;-77
2021/10/10 06:01:32;;;;;;;;;;;;;;;23.40;30.53;101711.00;4875060;29;19956;-78
2021/10/10 06:03:58;;;;;;;;;;;;;;;23.87;30.49;101673.97;4860649;29;19923;-79
2021/10/10 06:06:23;;;;;;;;;;;;;;;25.13;29.29;101703.94;4876808;29;19924;-78
2021/10/10 06:08:49;;;;;;;;;;;;;;;25.88;28.32;101693.75;4871571;29;20030;-77
2021/10/10 06:11:30;;;;;;;;;;;;;;;26.55;27.65;101699.69;4863817;29;19931;-76
2021/10/10 06:14:02;;;;;;;;;;;;;;;27.11;27.27;101683.75;4876434;29;19927;-78
2021/10/10 06:16:33;;;;;;;;;;;;;;;27.96;26.33;101681.31;4862243;29;20011;-78
2021/10/10 06:19:00;;;;;;;;;;;;;;;28.85;25.42;101691.69;4878351;29;20411;-78
2021/10/10 06:21:27;;;;;;;;;;;;;;;29.80;24.58;101670.13;4879811;29;20022;-79
2021/10/10 06:23:57;;;;;;;;;;;;;;;30.67;23.81;101666.59;4847270;29;19955;-78
2021/10/10 06:29:13;;;;;;;;;;;;;;;32.29;22.72;101661.03;4888038;29;19924;-79
2021/10/10 06:31:49;;;;;;;;;;;;;;;33.08;21.79;101665.22;4883146;29;19924;-80
2021/10/10 06:34:14;;;;;;;;;;;;;;;33.79;21.23;101656.22;4899884;29;19967;-78
2021/10/10 06:36:40;;;;;;;;;;;;;;;34.59;20.19;101650.81;4858239;29;19923;-81
2021/10/10 06:39:05;;;;;;;;;;;;;;;35.03;19.91;101651.69;4888411;29;20367;-81
2021/10/10 06:41:32;;;;;;;;;;;;;;;35.58;19.29;101651.53;4895269;29;19990;-79
2021/10/10 06:43:57;;;;;;;;;;;;;;;36.13;18.88;101641.41;4887405;29;19924;-80
2021/10/10 06:46:26;;;;;;;;;;;;;;;36.77;17.78;101636.56;4888547;29;19928;-79
2021/10/10 06:48:52;;;;;;;;;;;;;;;37.22;17.81;101633.31;4885181;29;19935;-80
2021/10/10 06:51:18;;;;;;;;;;;;;;;37.71;17.07;101626.09;4852172;29;19925;-79
2021/10/10 06:53:43;;;;;;;;;;;;;;;38.32;16.71;101629.22;4879821;29;19931;-78
2021/10/10 06:56:09;;;;;;;;;;;;;;;38.56;16.46;101620.50;4884402;29;19973;-79
2021/10/10 06:58:54;;;;;;;;;;;;;;;39.01;15.94;101614.13;4880353;29;19936;-78
2021/10/10 07:01:20;;;;;;;;;;;;;;;39.52;15.40;101628.97;4877017;29;19927;-80
2021/10/10 07:03:55;;;;;;;;;;;;;;;39.66;15.24;101614.78;4875480;29;19979;-79
2021/10/10 07:06:31;;;;;;;;;;;;;;;39.84;14.75;101625.59;4870211;29;19978;-79
2021/10/10 07:09:11;;;;;;;;;;;;;;;40.01;15.12;101623.78;4856821;29;20392;-80
2021/10/10 07:12:07;;;;;;;;;;;;;;;40.37;14.27;101625.47;4886525;29;20014;-79
2021/10/10 07:14:50;;;;;;;;;;;;;;;40.77;14.37;101621.09;4830309;29;19930;-77
2021/10/10 07:17:30;;;;;;;;;;;;;;;41.13;13.99;101625.41;4882698;29;19935;-80
2021/10/10 07:20:22;;;;;;;;;;;;;;;41.52;13.37;101616.47;4872205;29;19967;-81
2021/10/10 07:23:27;;;;;;;;;;;;;;;41.80;13.21;101613.31;4888081;29;20396;-78
2021/10/10 07:25:53;;;;;;;;;;;;;;;41.76;13.16;101617.41;4883920;29;19932;-79
2021/10/10 07:28:28;;;;;;;;;;;;;;;42.10;13.18;101612.66;4872176;29;19987;-78
2021/10/10 07:30:54;;;;;;;;;;;;;;;42.74;12.22;101614.31;4889893;29;19930;-78
2021/10/10 07:33:25;;;;;;;;;;;;;;;43.56;11.89;101612.69;4895582;29;19907;-80
2021/10/10 07:35:57;;;;;;;;;;;;;;;43.84;11.25;101613.91;4898964;29;19948;-81
2021/10/10 07:38:22;;;;;;;;;;;;;;;43.86;11.43;101607.22;4884010;29;19935;-80
2021/10/10 07:40:48;;;;;;;;;;;;;;;44.12;11.30;101613.22;4887574;29;20410;-80
2021/10/10 07:43:13;;;;;;;;;;;;;;;43.94;11.26;101603.50;4866719;29;19925;-80
2021/10/10 07:45:43;;;;;;;;;;;;;;;43.15;11.45;101618.59;4884218;29;19951;-79
2021/10/10 07:48:12;;;;;;;;;;;;;;;42.34;11.38;101611.69;4880453;29;19923;-79
2021/10/10 07:50:39;;;;;;;;;;;;;;;41.43;11.44;101606.56;4851945;29;19924;-78
2021/10/10 07:53:08;;;;;;;;;;;;;;;40.85;11.61;101611.22;4881050;29;19967;-78
2021/10/10 07:55:36;;;;;;;;;;;;;;;40.66;11.90;101608.66;4881500;29;19987;-77
2021/10/10 07:58:02;;;;;;;;;;;;;;;40.30;11.45;101608.94;4879136;29;19951;-78
2021/10/10 08:00:30;;;;;;;;;;;;;;;40.57;11.11;101609.66;4879762;29;19927;-78
2021/10/10 08:02:57;;;;;;;;;;;;;;;41.49;10.95;101596.81;4870493;29;19931;-78
2021/10/10 08:05:26;;;;;;;;;;;;;;;41.81;10.85;101601.34;4879852;29;19997;-76
2021/10/10 08:07:53;;;;;;;;;;;;;;;42.03;10.90;101593.41;4879638;29;20377;-76
2021/10/10 08:10:20;;;;;;;;;;;;;;;42.03;10.63;101598.88;4879465;29;19924;-79
2021/10/10 08:12:45;;;;;;;;;;;;;;;42.30;10.85;101604.88;4850594;29;20320;-78
2021/10/10 08:15:12;;;;;;;;;;;;;;;41.97;10.64;101597.72;4882706;29;19934;-79
2021/10/10 08:17:38;;;;;;;;;;;;;;;41.30;10.55;101603.53;4865473;29;19948;-79
2021/10/10 08:20:09;;;;;;;;;;;;;;;41.44;10.41;101593.75;4873194;29;19955;-80
2021/10/10 08:22:37;;;;;;;;;;;;;;;41.59;10.19;101594.78;4852578;29;20607;-79
2021/10/10 08:25:07;;;;;;;;;;;;;;;41.45;10.19;101590.88;4883520;29;19928;-78
2021/10/10 08:27:33;;;;;;;;;;;;;;;41.41;10.51;101601.28;4896603;29;20398;-79
2021/10/10 08:29:59;;;;;;;;;;;;;;;41.25;10.35;101602.19;4868812;29;19934;-80
2021/10/10 08:32:28;;;;;;;;;;;;;;;41.04;10.13;101599.13;4885732;29;19966;-84
2021/10/10 08:34:53;;;;;;;;;;;;;;;41.29;9.97;101596.34;4881883;29;19951;-78
2021/10/10 08:37:22;;;;;;;;;;;;;;;41.23;10.43;101597.91;4883865;29;19924;-80
2021/10/10 08:39:47;;;;;;;;;;;;;;;41.23;10.08;101593.31;4895651;29;19932;-81
2021/10/10 08:42:17;;;;;;;;;;;;;;;41.49;9.86;101594.09;4887830;29;21125;-79
2021/10/10 08:44:47;;;;;;;;;;;;;;;41.73;9.98;101593.16;4880380;29;19924;-78
2021/10/10 08:47:17;;;;;;;;;;;;;;;42.06;9.72;101586.72;4883212;29;20017;-79
2021/10/10 08:49:46;;;;;;;;;;;;;;;42.75;9.07;101594.13;4883435;29;20365;-78
2021/10/10 08:52:14;;;;;;;;;;;;;;;42.15;9.44;101588.38;4882696;29;19935;-79
2021/10/10 08:54:40;;;;;;;;;;;;;;;41.77;9.87;101585.50;4881671;29;19924;-78
2021/10/10 08:57:09;;;;;;;;;;;;;;;41.52;9.44;101582.84;4880939;29;19948;-78
2021/10/10 08:59:38;;;;;;;;;;;;;;;40.83;9.47;101591.44;4863046;29;19928;-78
2021/10/10 09:02:07;;;;;;;;;;;;;;;40.33;9.71;101585.94;4867035;29;19924;-78
2021/10/10 09:04:40;;;;;;;;;;;;;;;40.05;10.07;101583.47;4898499;29;19928;-78
2021/10/10 09:07:09;;;;;;;;;;;;;;;40.04;9.97;101584.50;4889394;29;19924;-78
2021/10/10 09:09:41;;;;;;;;;;;;;;;41.12;9.56;101573.72;4886757;29;20067;-78
2021/10/10 09:12:11;;;;;;;;;;;;;;;41.80;9.01;101568.75;4868249;29;19942;-78
2021/10/10 09:14:42;;;;;;;;;;;;;;;41.29;8.94;101577.25;4885335;29;19948;-77
2021/10/10 09:17:09;;;;;;;;;;;;;;;41.36;9.26;101573.66;4883347;29;19927;-78
2021/10/10 09:19:35;;;;;;;;;;;;;;;41.75;8.43;101565.69;4887213;29;19928;-79
2021/10/10 09:22:06;;;;;;;;;;;;;;;42.29;8.94;101573.94;4882608;29;19935;-77
2021/10/10 09:24:33;;;;;;;;;;;;;;;42.82;8.08;101569.63;4891842;29;19920;-79
2021/10/10 09:26:58;;;;;;;;;;;;;;;43.23;8.48;101562.94;4896489;29;19927;-75
2021/10/10 09:29:38;;;;;;;;;;;;;;;42.62;8.40;101563.81;4875049;29;19931;-79
2021/10/10 09:32:12;;;;;;;;;;;;;;;42.45;8.92;101566.69;4863523;29;20058;-77
2021/10/10 09:34:39;;;;;;;;;;;;;;;41.74;8.34;101573.03;4877376;29;19923;-78
2021/10/10 09:37:08;;;;;;;;;;;;;;;42.23;8.81;101563.75;4879897;29;19924;-78
2021/10/10 09:39:37;;;;;;;;;;;;;;;42.88;8.35;101567.03;4864966;29;19947;-77
2021/10/10 09:42:03;;;;;;;;;;;;;;;43.03;8.43;101558.84;4876969;29;19928;-78
2021/10/10 09:44:36;;;;;;;;;;;;;;;43.25;8.28;101560.84;4877195;29;19958;-79
2021/10/10 09:47:08;;;;;;;;;;;;;;;43.30;8.15;101561.16;4880169;29;19955;-78
2021/10/10 09:49:37;;;;;;;;;;;;;;;43.16;7.82;101560.06;4865201;29;19928;-80
2021/10/10 09:52:09;;;;;;;;;;;;;;;41.75;8.39;101535.66;4879798;29;20863;-78
2021/10/10 09:54:54;;;;;;;;;;;;;;;40.42;8.68;101560.41;4880969;29;20018;-78
2021/10/10 09:57:21;;;;;;;;;;;;;;;38.05;9.76;101557.63;4882104;29;19923;-78
2021/10/10 09:59:47;;;;;;;;;;;;;;;35.41;10.77;101571.81;4852838;29;19988;-77
2021/10/10 10:02:19;;;;;;;;;;;;;;;33.07;11.68;101562.88;4888926;29;19927;-78
2021/10/10 10:04:49;;;;;;;;;;;;;;;31.20;12.63;101575.34;4891635;29;19930;-76
2021/10/10 10:07:19;;;;;;;;;;;;;;;29.70;13.06;101575.94;4903471;29;19924;-75
2021/10/10 10:09:50;;;;;;;;;;;;;;;28.47;14.04;101573.34;4871759;29;19923;-77
2021/10/10 10:12:20;;;;;;;;;;;;;;;27.50;14.29;101580.28;4890427;29;19934;-75
2021/10/10 10:14:53;;;;;;;;;;;;;;;26.58;14.68;101573.28;4875384;29;19923;-77
2021/10/10 10:17:27;;;;;;;;;;;;;;;26.01;15.20;101577.66;4890054;29;19924;-78
2021/10/10 10:20:00;;;;;;;;;;;;;;;25.39;15.17;101572.34;4898701;29;19984;-78
2021/10/10 10:22:26;;;;;;;;;;;;;;;24.70;15.37;101580.53;4880626;29;20038;-77
2021/10/10 10:24:52;;;;;;;;;;;;;;;24.02;16.02;101579.56;4866688;29;19923;-78
2021/10/10 10:27:29;;;;;;;;;;;;;;;23.43;16.23;101573.66;4880740;29;19923;-78
2021/10/10 10:29:56;;;;;;;;;;;;;;;23.08;16.72;101577.47;4881249;29;20675;-77
2021/10/10 10:32:28;;;;;;;;;;;;;;;22.80;16.72;101576.59;4876989;29;19936;-78
2021/10/10 10:34:58;;;;;;;;;;;;;;;22.52;16.72;101590.72;4878526;29;19928;-78
2021/10/10 10:37:43;;;;;;;;;;;;;;;22.22;17.13;101589.84;4879126;29;20419;-78
2021/10/10 10:40:22;;;;;;;;;;;;;;;21.97;17.62;101583.44;4863334;29;19923;-78
2021/10/10 10:42:54;;;;;;;;;;;;;;;21.71;17.64;101580.69;4860337;29;19953;-78
2021/10/10 10:45:20;;;;;;;;;;;;;;;21.47;17.75;101588.34;4880807;29;19924;-77
2021/10/10 10:47:47;;;;;;;;;;;;;;;21.26;17.89;101579.16;4882054;29;19935;-78
2021/10/10 10:50:14;;;;;;;;;;;;;;;21.06;18.24;101584.06;4865894;29;20353;-79
2021/10/10 10:52:43;;;;;;;;;;;;;;;20.80;18.17;101584.66;4882305;29;19983;-78
2021/10/10 10:55:16;;;;;;;;;;;;;;;20.53;18.51;101579.06;4882686;29;20010;-78
2021/10/10 10:58:03;;;;;;;;;;;;;;;20.32;18.93;101578.63;4882846;29;19923;-78
2021/10/10 11:00:35;;;;;;;;;;;;;;;20.11;18.87;101577.34;4889310;29;19923;-76
2021/10/10 11:03:09;;;;;;;;;;;;;;;19.95;19.03;101581.19;4877260;29;20340;-77
2021/10/10 11:05:38;;;;;;;;;;;;;;;19.70;19.30;101581.63;4865656;29;19932;-77
2021/10/10 11:08:27;;;;;;;;;;;;;;;19.53;19.77;101572.22;4900365;29;19935;-77
2021/10/10 11:11:13;;;;;;;;;;;;;;;19.36;19.81;101567.28;4875874;29;19976;-76
2021/10/10 11:13:57;;;;;;;;;;;;;;;19.21;20.01;101568.41;4897427;29;19994;-76
2021/10/10 11:16:25;;;;;;;;;;;;;;;19.08;20.20;101573.00;4889746;29;19948;-75
2021/10/10 11:19:01;;;;;;;;;;;;;;;18.89;20.32;101572.38;4897329;29;19987;-77
2021/10/10 11:21:30;;;;;;;;;;;;;;;18.71;20.48;101573.56;4888020;29;19923;-78
2021/10/10 11:23:59;;;;;;;;;;;;;;;18.61;20.77;101564.91;4891825;29;20063;-78
2021/10/10 11:26:25;;;;;;;;;;;;;;;18.50;20.63;101566.81;4901801;29;19923;-76
2021/10/10 11:28:56;;;;;;;;;;;;;;;18.33;20.94;101564.41;4881867;29;20018;-76
2021/10/10 11:31:25;;;;;;;;;;;;;;;18.03;21.38;101563.91;4884961;29;19927;-76
2021/10/10 11:33:56;;;;;;;;;;;;;;;17.81;21.76;101565.88;4885760;29;19924;-75
2021/10/10 11:36:36;;;;;;;;;;;;;;;17.71;22.04;101562.47;4884532;29;19930;-76
2021/10/10 11:39:11;;;;;;;;;;;;;;;17.63;21.91;101575.72;4902014;29;19923;-78
2021/10/10 11:41:56;;;;;;;;;;;;;;;17.55;22.26;101567.00;4907548;29;20346;-77
2021/10/10 11:44:22;;;;;;;;;;;;;;;17.47;22.38;101564.47;4859123;29;19931;-78
2021/10/10 11:46:53;;;;;;;;;;;;;;;17.45;22.37;101568.88;4891238;29;19958;-78
2021/10/10 11:49:33;;;;;;;;;;;;;;;17.37;22.56;101565.44;4898942;29;19996;-77
2021/10/10 11:52:09;;;;;;;;;;;;;;;17.27;22.80;101559.41;4883971;29;19927;-77
2021/10/10 11:54:43;;;;;;;;;;;;;;;17.22;22.75;101563.81;4902223;29;19969;-76
2021/10/10 11:57:15;;;;;;;;;;;;;;;17.16;22.87;101560.34;4891159;29;19940;-78
2021/10/10 11:59:50;;;;;;;;;;;;;;;17.13;22.87;101556.88;4871661;29;19927;-78
2021/10/10 12:02:17;;;;;;;;;;;;;;;17.08;23.14;101553.41;4887916;29;19933;-76
2021/10/10 12:04:43;;;;;;;;;;;;;;;17.05;23.15;101551.69;4888339;29;19978;-77
2021/10/10 12:07:12;;;;;;;;;;;;;;;17.02;23.39;101554.34;4888557;29;19923;-77
2021/10/10 12:09:50;;;;;;;;;;;;;;;16.94;23.27;101549.13;4874756;29;19955;-77
2021/10/10 12:12:15;;;;;;;;;;;;;;;16.86;23.58;101549.19;4886520;29;20030;-77
2021/10/10 12:14:42;;;;;;;;;;;;;;;16.85;23.53;101547.44;4874042;29;19958;-76
2021/10/10 12:17:24;;;;;;;;;;;;;;;16.81;23.65;101544.81;4875051;29;19923;-79
2021/10/10 12:19:58;;;;;;;;;;;;;;;16.75;23.73;101542.25;4860815;29;20104;-78
2021/10/10 12:22:27;;;;;;;;;;;;;;;16.70;23.83;101539.63;4889360;29;20034;-77
2021/10/10 12:24:55;;;;;;;;;;;;;;;16.62;23.84;101541.44;4908100;29;19927;-75
2021/10/10 12:27:23;;;;;;;;;;;;;;;16.58;23.97;101539.72;4892228;29;20406;-77
2021/10/10 12:29:48;;;;;;;;;;;;;;;16.51;24.11;101537.13;4892292;29;20392;-79
2021/10/10 12:32:44;;;;;;;;;;;;;;;16.43;24.07;101531.06;4871478;29;20022;-78
2021/10/10 12:35:15;;;;;;;;;;;;;;;16.42;24.32;101524.06;4865882;29;20002;-76
2021/10/10 12:37:58;;;;;;;;;;;;;;;16.37;24.24;101529.31;4867340;29;19935;-79
2021/10/10 12:40:36;;;;;;;;;;;;;;;16.34;24.44;101525.84;4902067;29;19935;-77
2021/10/10 12:43:03;;;;;;;;;;;;;;;16.26;24.63;101523.25;4885520;29;19962;-78
2021/10/10 12:45:31;;;;;;;;;;;;;;;16.16;24.46;101530.31;4884997;29;19927;-78
2021/10/10 12:48:00;;;;;;;;;;;;;;;16.10;24.77;101525.09;4883502;29;19927;-79
2021/10/10 12:50:28;;;;;;;;;;;;;;;16.09;24.78;101520.72;4870706;29;19951;-77
2021/10/10 12:52:54;;;;;;;;;;;;;;;16.05;24.88;101513.72;4904836;29;20022;-77
2021/10/10 12:55:24;;;;;;;;;;;;;;;16.01;24.80;101522.47;4901544;29;19941;-78